sensor_id;sensor_type;location;lat;lon;timestamp;pressure;altitude;pressure_sealevel;temperature;humidity
21879;BME280;27908;42.708;23.278;2023-02-15T00:01:08;62697.44;;;1.78;100.00
21879;BME280;27908;42.708;23.278;2023-02-15T00:03:34;62708.81;;;1.68;100.00
21879;BME280;27908;42.708;23.278;2023-02-15T00:05:59;62665.94;;;1.53;100.00
21879;BME280;27908;42.708;23.278;2023-02-15T00:08:25;62707.88;;;1.72;100.00
21879;BME280;27908;42.708;23.278;2023-02-15T00:10:50;62699.41;;;1.76;100.00
21879;BME280;27908;42.708;23.278;2023-02-15T00:13:15;62730.75;;;1.57;100.00
21879;BME280;27908;42.708;23.278;2023-02-15T00:15:41;62677.28;;;1.74;100.00
21879;BME280;27908;42.708;23.278;2023-02-15T00:18:06;62699.84;;;1.71;100.00
21879;BME280;27908;42.708;23.278;2023-02-15T00:20:31;62671.16;;;1.68;100.00
21879;BME280;27908;42.708;23.278;2023-02-15T00:22:58;62719.31;;;1.66;100.00
21879;BME280;27908;42.708;23.278;2023-02-15T00:25:23;62683.19;;;1.65;100.00
21879;BME280;27908;42.708;23.278;2023-02-15T00:27:49;62684.56;;;1.56;100.00
21879;BME280;27908;42.708;23.278;2023-02-15T00:30:14;62704.66;;;1.59;100.00
21879;BME280;27908;42.708;23.278;2023-02-15T00:32:39;62696.03;;;1.53;100.00
21879;BME280;27908;42.708;23.278;2023-02-15T00:35:05;62649.19;;;1.41;100.00
21879;BME280;27908;42.708;23.278;2023-02-15T00:37:32;62674.44;;;1.51;100.00
21879;BME280;27908;42.708;23.278;2023-02-15T00:39:57;62662.44;;;1.54;100.00
21879;BME280;27908;42.708;23.278;2023-02-15T00:42:22;62686.00;;;1.53;100.00
21879;BME280;27908;42.708;23.278;2023-02-15T00:44:48;62634.84;;;1.54;100.00
21879;BME280;27908;42.708;23.278;2023-02-15T00:47:13;62702.13;;;1.56;100.00
21879;BME280;27908;42.708;23.278;2023-02-15T00:49:38;62686.06;;;1.58;100.00
21879;BME280;27908;42.708;23.278;2023-02-15T00:52:04;62683.22;;;1.67;100.00
21879;BME280;27908;42.708;23.278;2023-02-15T00:54:29;62663.88;;;1.51;100.00
21879;BME280;27908;42.708;23.278;2023-02-15T00:56:55;62657.50;;;1.59;100.00
21879;BME280;27908;42.708;23.278;2023-02-15T00:59:20;62710.53;;;1.50;100.00
21879;BME280;27908;42.708;23.278;2023-02-15T01:01:45;62662.78;;;1.45;100.00
21879;BME280;27908;42.708;23.278;2023-02-15T01:04:11;62692.41;;;1.44;100.00
21879;BME280;27908;42.708;23.278;2023-02-15T01:06:36;62643.59;;;1.36;100.00
21879;BME280;27908;42.708;23.278;2023-02-15T01:09:02;62690.44;;;1.47;100.00
21879;BME280;27908;42.708;23.278;2023-02-15T01:11:27;62686.38;;;1.46;100.00
21879;BME280;27908;42.708;23.278;2023-02-15T01:13:55;62710.50;;;1.47;100.00
21879;BME280;27908;42.708;23.278;2023-02-15T01:16:22;62661.19;;;1.39;100.00
21879;BME280;27908;42.708;23.278;2023-02-15T01:18:47;62673.38;;;1.16;100.00
21879;BME280;27908;42.708;23.278;2023-02-15T01:21:16;62667.06;;;1.30;100.00
21879;BME280;27908;42.708;23.278;2023-02-15T01:23:42;62671.25;;;1.09;100.00
21879;BME280;27908;42.708;23.278;2023-02-15T01:26:08;62629.75;;;1.18;100.00
21879;BME280;27908;42.708;23.278;2023-02-15T01:28:34;62618.50;;;1.05;100.00
21879;BME280;27908;42.708;23.278;2023-02-15T01:31:05;62635.78;;;1.19;100.00
21879;BME280;27908;42.708;23.278;2023-02-15T01:33:30;62629.69;;;1.13;100.00
21879;BME280;27908;42.708;23.278;2023-02-15T01:35:57;62634.72;;;1.15;100.00
21879;BME280;27908;42.708;23.278;2023-02-15T01:38:22;62632.31;;;1.20;100.00
21879;BME280;27908;42.708;23.278;2023-02-15T01:40:51;62638.06;;;1.04;100.00
21879;BME280;27908;42.708;23.278;2023-02-15T01:43:17;62654.72;;;1.10;100.00
21879;BME280;27908;42.708;23.278;2023-02-15T01:45:45;62622.63;;;0.79;100.00
21879;BME280;27908;42.708;23.278;2023-02-15T01:48:22;62627.63;;;1.11;100.00
21879;BME280;27908;42.708;23.278;2023-02-15T01:50:56;62622.56;;;1.06;100.00
21879;BME280;27908;42.708;23.278;2023-02-15T01:53:41;62630.09;;;1.08;100.00
21879;BME280;27908;42.708;23.278;2023-02-15T01:56:14;62608.72;;;0.88;100.00
21879;BME280;27908;42.708;23.278;2023-02-15T01:58:40;62610.41;;;0.99;100.00
21879;BME280;27908;42.708;23.278;2023-02-15T02:01:08;62604.06;;;0.78;100.00
21879;BME280;27908;42.708;23.278;2023-02-15T02:04:07;62628.38;;;0.95;100.00
21879;BME280;27908;42.708;23.278;2023-02-15T02:06:35;62633.88;;;0.93;100.00
21879;BME280;27908;42.708;23.278;2023-02-15T02:09:01;62586.63;;;0.86;100.00
21879;BME280;27908;42.708;23.278;2023-02-15T02:11:27;62617.88;;;0.97;100.00
21879;BME280;27908;42.708;23.278;2023-02-15T02:13:53;62657.09;;;1.03;100.00
21879;BME280;27908;42.708;23.278;2023-02-15T02:25:04;62627.94;;;0.99;100.00
21879;BME280;27908;42.708;23.278;2023-02-15T02:28:01;62633.56;;;1.05;100.00
21879;BME280;27908;42.708;23.278;2023-02-15T02:30:53;62618.84;;;0.95;100.00
21879;BME280;27908;42.708;23.278;2023-02-15T02:33:28;62630.03;;;1.04;100.00
21879;BME280;27908;42.708;23.278;2023-02-15T02:44:31;62639.13;;;1.07;100.00
21879;BME280;27908;42.708;23.278;2023-02-15T02:47:10;62644.19;;;1.10;100.00
21879;BME280;27908;42.708;23.278;2023-02-15T02:49:41;62642.13;;;1.08;100.00
21879;BME280;27908;42.708;23.278;2023-02-15T02:54:59;62656.56;;;1.00;100.00
21879;BME280;27908;42.708;23.278;2023-02-15T02:57:26;62649.31;;;1.17;100.00
21879;BME280;27908;42.708;23.278;2023-02-15T02:59:53;62648.78;;;1.17;100.00
21879;BME280;27908;42.708;23.278;2023-02-15T03:02:24;62653.56;;;1.34;100.00
21879;BME280;27908;42.708;23.278;2023-02-15T03:04:57;62659.63;;;1.35;100.00
21879;BME280;27908;42.708;23.278;2023-02-15T03:07:30;62658.88;;;1.51;100.00
21879;BME280;27908;42.708;23.278;2023-02-15T03:10:00;62664.44;;;1.54;100.00
21879;BME280;27908;42.708;23.278;2023-02-15T03:12:32;62735.34;;;1.64;100.00
21879;BME280;27908;42.708;23.278;2023-02-15T03:15:12;62698.28;;;1.67;100.00
21879;BME280;27908;42.708;23.278;2023-02-15T03:17:45;62710.34;;;1.69;100.00
21879;BME280;27908;42.708;23.278;2023-02-15T03:20:27;62730.69;;;1.86;100.00
21879;BME280;27908;42.708;23.278;2023-02-15T03:23:06;62687.06;;;1.90;100.00
21879;BME280;27908;42.708;23.278;2023-02-15T03:25:38;62727.81;;;1.93;100.00
21879;BME280;27908;42.708;23.278;2023-02-15T03:28:08;62706.78;;;1.97;100.00
21879;BME280;27908;42.708;23.278;2023-02-15T03:30:37;62722.84;;;1.98;100.00
21879;BME280;27908;42.708;23.278;2023-02-15T03:33:04;62708.66;;;1.89;100.00
21879;BME280;27908;42.708;23.278;2023-02-15T03:35:39;62699.84;;;2.05;100.00
21879;BME280;27908;42.708;23.278;2023-02-15T03:38:10;62751.13;;;2.09;100.00
21879;BME280;27908;42.708;23.278;2023-02-15T03:40:42;62715.94;;;2.06;100.00
21879;BME280;27908;42.708;23.278;2023-02-15T03:43:54;62745.13;;;2.10;100.00
21879;BME280;27908;42.708;23.278;2023-02-15T03:46:47;62735.59;;;2.11;100.00
21879;BME280;27908;42.708;23.278;2023-02-15T03:49:38;62725.41;;;2.01;100.00
21879;BME280;27908;42.708;23.278;2023-02-15T03:52:07;62745.97;;;1.99;100.00
21879;BME280;27908;42.708;23.278;2023-02-15T03:54:34;62749.19;;;2.12;100.00
21879;BME280;27908;42.708;23.278;2023-02-15T03:57:23;62733.09;;;2.11;100.00
21879;BME280;27908;42.708;23.278;2023-02-15T04:00:22;62887.00;;;2.21;100.00
21879;BME280;27908;42.708;23.278;2023-02-15T04:05:56;62754.28;;;2.16;100.00
21879;BME280;27908;42.708;23.278;2023-02-15T04:08:21;62773.63;;;2.33;100.00
21879;BME280;27908;42.708;23.278;2023-02-15T04:11:07;62758.50;;;2.30;100.00
21879;BME280;27908;42.708;23.278;2023-02-15T04:13:33;62771.03;;;2.28;100.00
21879;BME280;27908;42.708;23.278;2023-02-15T04:15:58;62751.91;;;2.26;100.00
21879;BME280;27908;42.708;23.278;2023-02-15T04:18:48;62803.81;;;2.35;100.00
21879;BME280;27908;42.708;23.278;2023-02-15T04:21:32;62773.16;;;2.35;100.00
21879;BME280;27908;42.708;23.278;2023-02-15T04:24:16;62747.66;;;2.44;100.00
21879;BME280;27908;42.708;23.278;2023-02-15T04:27:00;62746.88;;;2.26;100.00
21879;BME280;27908;42.708;23.278;2023-02-15T04:29:27;62786.81;;;2.41;100.00
21879;BME280;27908;42.708;23.278;2023-02-15T04:31:54;62811.50;;;2.45;100.00
21879;BME280;27908;42.708;23.278;2023-02-15T04:34:21;62790.34;;;2.42;100.00
21879;BME280;27908;42.708;23.278;2023-02-15T04:36:46;62766.63;;;2.36;100.00
21879;BME280;27908;42.708;23.278;2023-02-15T04:39:16;62758.09;;;2.37;100.00
21879;BME280;27908;42.708;23.278;2023-02-15T04:41:42;62791.84;;;2.41;100.00
21879;BME280;27908;42.708;23.278;2023-02-15T04:44:08;62748.63;;;2.43;100.00
21879;BME280;27908;42.708;23.278;2023-02-15T04:46:33;62766.22;;;2.43;100.00
21879;BME280;27908;42.708;23.278;2023-02-15T04:48:59;62835.59;;;2.42;100.00
21879;BME280;27908;42.708;23.278;2023-02-15T04:51:24;62815.09;;;2.48;100.00
21879;BME280;27908;42.708;23.278;2023-02-15T04:53:50;62783.84;;;2.45;100.00
21879;BME280;27908;42.708;23.278;2023-02-15T04:56:18;62755.63;;;2.40;100.00
21879;BME280;27908;42.708;23.278;2023-02-15T04:58:43;62726.94;;;2.36;100.00
21879;BME280;27908;42.708;23.278;2023-02-15T05:01:09;62787.47;;;2.51;100.00
21879;BME280;27908;42.708;23.278;2023-02-15T05:03:35;62766.03;;;2.30;100.00
21879;BME280;27908;42.708;23.278;2023-02-15T05:06:01;62760.72;;;2.45;100.00
21879;BME280;27908;42.708;23.278;2023-02-15T05:08:26;62800.13;;;2.56;100.00
21879;BME280;27908;42.708;23.278;2023-02-15T05:10:52;62799.09;;;2.55;100.00
21879;BME280;27908;42.708;23.278;2023-02-15T05:13:17;62800.63;;;2.56;100.00
21879;BME280;27908;42.708;23.278;2023-02-15T05:15:47;62762.41;;;2.56;100.00
21879;BME280;27908;42.708;23.278;2023-02-15T05:18:14;62813.50;;;2.45;100.00
21879;BME280;27908;42.708;23.278;2023-02-15T05:20:39;62777.41;;;2.51;100.00
21879;BME280;27908;42.708;23.278;2023-02-15T05:23:04;62802.69;;;2.61;100.00
21879;BME280;27908;42.708;23.278;2023-02-15T05:25:30;62774.50;;;2.58;100.00
21879;BME280;27908;42.708;23.278;2023-02-15T05:28:14;62754.13;;;2.41;100.00
21879;BME280;27908;42.708;23.278;2023-02-15T05:30:49;62763.94;;;2.57;100.00
21879;BME280;27908;42.708;23.278;2023-02-15T05:33:26;62777.88;;;2.49;100.00
21879;BME280;27908;42.708;23.278;2023-02-15T05:35:52;62805.69;;;2.59;100.00
21879;BME280;27908;42.708;23.278;2023-02-15T05:38:17;62780.97;;;2.52;100.00
21879;BME280;27908;42.708;23.278;2023-02-15T05:40:43;62813.25;;;2.61;100.00
21879;BME280;27908;42.708;23.278;2023-02-15T05:43:08;62786.56;;;2.57;100.00
21879;BME280;27908;42.708;23.278;2023-02-15T05:45:33;62781.94;;;2.50;100.00
21879;BME280;27908;42.708;23.278;2023-02-15T05:47:59;62806.94;;;2.75;100.00
21879;BME280;27908;42.708;23.278;2023-02-15T05:50:25;62793.81;;;2.72;100.00
21879;BME280;27908;42.708;23.278;2023-02-15T05:52:50;62808.91;;;2.72;100.00
21879;BME280;27908;42.708;23.278;2023-02-15T05:55:16;62849.75;;;2.80;100.00
21879;BME280;27908;42.708;23.278;2023-02-15T05:57:42;62808.94;;;2.74;100.00
21879;BME280;27908;42.708;23.278;2023-02-15T06:00:07;62835.09;;;2.75;100.00
21879;BME280;27908;42.708;23.278;2023-02-15T06:02:35;62822.06;;;2.77;100.00
21879;BME280;27908;42.708;23.278;2023-02-15T06:05:02;62839.28;;;2.84;100.00
21879;BME280;27908;42.708;23.278;2023-02-15T06:07:27;62841.22;;;2.81;100.00
21879;BME280;27908;42.708;23.278;2023-02-15T06:09:53;62841.84;;;2.89;100.00
21879;BME280;27908;42.708;23.278;2023-02-15T06:12:18;62862.97;;;2.87;100.00
21879;BME280;27908;42.708;23.278;2023-02-15T06:14:43;62860.09;;;2.97;100.00
21879;BME280;27908;42.708;23.278;2023-02-15T06:17:09;62818.38;;;3.00;100.00
21879;BME280;27908;42.708;23.278;2023-02-15T06:19:34;62844.88;;;2.89;100.00
21879;BME280;27908;42.708;23.278;2023-02-15T06:21:59;62856.06;;;2.98;100.00
21879;BME280;27908;42.708;23.278;2023-02-15T06:24:25;62817.00;;;3.09;100.00
21879;BME280;27908;42.708;23.278;2023-02-15T06:26:50;62851.63;;;3.03;100.00
21879;BME280;27908;42.708;23.278;2023-02-15T06:29:16;62840.63;;;3.07;100.00
21879;BME280;27908;42.708;23.278;2023-02-15T06:31:41;62820.28;;;2.92;100.00
21879;BME280;27908;42.708;23.278;2023-02-15T06:34:07;62829.50;;;3.04;100.00
21879;BME280;27908;42.708;23.278;2023-02-15T06:36:33;62845.66;;;3.07;100.00
21879;BME280;27908;42.708;23.278;2023-02-15T06:38:58;62825.53;;;3.07;100.00
21879;BME280;27908;42.708;23.278;2023-02-15T06:41:24;62873.88;;;3.10;100.00
21879;BME280;27908;42.708;23.278;2023-02-15T06:43:50;62902.69;;;3.18;100.00
21879;BME280;27908;42.708;23.278;2023-02-15T06:46:15;62892.22;;;3.25;100.00
21879;BME280;27908;42.708;23.278;2023-02-15T06:48:41;62822.22;;;3.23;100.00
21879;BME280;27908;42.708;23.278;2023-02-15T06:51:06;62864.53;;;3.25;100.00
21879;BME280;27908;42.708;23.278;2023-02-15T06:53:32;62883.28;;;3.34;100.00
21879;BME280;27908;42.708;23.278;2023-02-15T06:56:05;62871.72;;;3.35;100.00
21879;BME280;27908;42.708;23.278;2023-02-15T06:58:49;62885.75;;;3.29;100.00
21879;BME280;27908;42.708;23.278;2023-02-15T07:01:15;62847.03;;;3.33;100.00
21879;BME280;27908;42.708;23.278;2023-02-15T07:03:40;62883.97;;;3.47;100.00
21879;BME280;27908;42.708;23.278;2023-02-15T07:06:06;62879.53;;;3.52;100.00
21879;BME280;27908;42.708;23.278;2023-02-15T07:08:34;62853.66;;;3.39;100.00
21879;BME280;27908;42.708;23.278;2023-02-15T07:11:00;62904.22;;;3.54;100.00
21879;BME280;27908;42.708;23.278;2023-02-15T07:13:54;62911.72;;;3.49;100.00
21879;BME280;27908;42.708;23.278;2023-02-15T07:16:20;62888.63;;;3.53;100.00
21879;BME280;27908;42.708;23.278;2023-02-15T07:18:46;62884.59;;;3.54;100.00
21879;BME280;27908;42.708;23.278;2023-02-15T07:21:12;62899.59;;;3.47;100.00
21879;BME280;27908;42.708;23.278;2023-02-15T07:23:38;62885.59;;;3.53;100.00
21879;BME280;27908;42.708;23.278;2023-02-15T07:26:05;62898.75;;;3.58;100.00
21879;BME280;27908;42.708;23.278;2023-02-15T07:28:33;62913.97;;;3.66;100.00
21879;BME280;27908;42.708;23.278;2023-02-15T07:31:01;62908.00;;;3.70;100.00
21879;BME280;27908;42.708;23.278;2023-02-15T07:33:27;62894.31;;;3.64;100.00
21879;BME280;27908;42.708;23.278;2023-02-15T07:35:54;62912.56;;;3.72;100.00
21879;BME280;27908;42.708;23.278;2023-02-15T07:38:20;62904.06;;;3.78;100.00
21879;BME280;27908;42.708;23.278;2023-02-15T07:40:46;62903.50;;;3.73;100.00
21879;BME280;27908;42.708;23.278;2023-02-15T07:43:12;62914.03;;;3.71;100.00
21879;BME280;27908;42.708;23.278;2023-02-15T07:45:38;62947.53;;;3.86;100.00
21879;BME280;27908;42.708;23.278;2023-02-15T07:48:04;62891.16;;;3.90;100.00
21879;BME280;27908;42.708;23.278;2023-02-15T07:50:30;62951.28;;;4.02;100.00
21879;BME280;27908;42.708;23.278;2023-02-15T07:52:57;62971.66;;;4.17;99.95
21879;BME280;27908;42.708;23.278;2023-02-15T07:55:22;62951.97;;;4.15;98.77
21879;BME280;27908;42.708;23.278;2023-02-15T07:57:49;62977.84;;;4.27;98.98
21879;BME280;27908;42.708;23.278;2023-02-15T08:00:17;62959.56;;;4.17;98.59
21879;BME280;27908;42.708;23.278;2023-02-15T08:02:53;63025.47;;;4.42;99.19
21879;BME280;27908;42.708;23.278;2023-02-15T08:05:38;62966.75;;;4.26;98.25
21879;BME280;27908;42.708;23.278;2023-02-15T08:08:04;62995.19;;;4.42;95.78
21879;BME280;27908;42.708;23.278;2023-02-15T08:10:30;62957.16;;;4.24;96.64
21879;BME280;27908;42.708;23.278;2023-02-15T08:13:14;62998.06;;;4.30;95.89
21879;BME280;27908;42.708;23.278;2023-02-15T08:15:47;62975.00;;;4.05;96.62
21879;BME280;27908;42.708;23.278;2023-02-15T08:18:13;62942.25;;;4.05;96.89
21879;BME280;27908;42.708;23.278;2023-02-15T08:20:38;62955.38;;;4.06;96.71
21879;BME280;27908;42.708;23.278;2023-02-15T08:23:04;62946.88;;;4.10;97.92
21879;BME280;27908;42.708;23.278;2023-02-15T08:25:29;62915.44;;;3.99;98.13
21879;BME280;27908;42.708;23.278;2023-02-15T08:27:54;62964.56;;;4.15;96.57
21879;BME280;27908;42.708;23.278;2023-02-15T08:30:20;62907.03;;;4.10;96.37
21879;BME280;27908;42.708;23.278;2023-02-15T08:32:45;62986.28;;;4.16;95.69
21879;BME280;27908;42.708;23.278;2023-02-15T08:35:11;62942.41;;;4.18;96.76
21879;BME280;27908;42.708;23.278;2023-02-15T08:37:36;62999.56;;;4.29;96.06
21879;BME280;27908;42.708;23.278;2023-02-15T08:40:02;63001.13;;;4.33;94.91
21879;BME280;27908;42.708;23.278;2023-02-15T08:42:27;63032.63;;;4.49;93.16
21879;BME280;27908;42.708;23.278;2023-02-15T08:44:53;62989.28;;;4.51;92.60
21879;BME280;27908;42.708;23.278;2023-02-15T08:47:20;63060.19;;;4.70;91.87
21879;BME280;27908;42.708;23.278;2023-02-15T08:49:45;63007.69;;;4.68;90.11
21879;BME280;27908;42.708;23.278;2023-02-15T08:52:10;63006.19;;;4.69;90.06
21879;BME280;27908;42.708;23.278;2023-02-15T08:54:36;63031.88;;;4.67;89.57
21879;BME280;27908;42.708;23.278;2023-02-15T08:57:01;63010.28;;;4.73;89.42
21879;BME280;27908;42.708;23.278;2023-02-15T08:59:26;63072.22;;;4.99;89.01
21879;BME280;27908;42.708;23.278;2023-02-15T09:01:53;63052.91;;;4.93;88.39
21879;BME280;27908;42.708;23.278;2023-02-15T09:04:20;63079.94;;;5.11;88.15
21879;BME280;27908;42.708;23.278;2023-02-15T09:06:47;63055.03;;;4.99;88.84
21879;BME280;27908;42.708;23.278;2023-02-15T09:09:12;63118.94;;;5.20;88.02
21879;BME280;27908;42.708;23.278;2023-02-15T09:11:41;63107.06;;;5.37;86.52
21879;BME280;27908;42.708;23.278;2023-02-15T09:14:16;63125.34;;;5.45;84.12
21879;BME280;27908;42.708;23.278;2023-02-15T09:16:45;63086.88;;;5.37;85.03
21879;BME280;27908;42.708;23.278;2023-02-15T09:19:14;63077.13;;;5.26;85.11
21879;BME280;27908;42.708;23.278;2023-02-15T09:21:39;63103.47;;;5.31;85.43
21879;BME280;27908;42.708;23.278;2023-02-15T09:24:08;63099.38;;;5.28;85.80
21879;BME280;27908;42.708;23.278;2023-02-15T09:26:35;63100.47;;;5.36;85.25
21879;BME280;27908;42.708;23.278;2023-02-15T09:29:02;63107.09;;;5.40;83.93
21879;BME280;27908;42.708;23.278;2023-02-15T09:31:31;63110.69;;;5.43;84.04
21879;BME280;27908;42.708;23.278;2023-02-15T09:33:58;63105.69;;;5.48;84.14
21879;BME280;27908;42.708;23.278;2023-02-15T09:36:32;63173.28;;;5.74;83.67
21879;BME280;27908;42.708;23.278;2023-02-15T09:39:03;63119.81;;;5.47;83.48
21879;BME280;27908;42.708;23.278;2023-02-15T09:50:06;63100.53;;;5.41;85.04
21879;BME280;27908;42.708;23.278;2023-02-15T09:58:36;63134.00;;;5.49;84.71
21879;BME280;27908;42.708;23.278;2023-02-15T10:01:09;63137.31;;;5.69;82.85
21879;BME280;27908;42.708;23.278;2023-02-15T10:20:21;63215.53;;;5.96;80.78
21879;BME280;27908;42.708;23.278;2023-02-15T10:23:21;63166.34;;;5.85;79.95
21879;BME280;27908;42.708;23.278;2023-02-15T10:26:20;63114.19;;;5.76;80.61
21879;BME280;27908;42.708;23.278;2023-02-15T10:28:55;63158.44;;;5.63;80.65
21879;BME280;27908;42.708;23.278;2023-02-15T10:31:28;63103.56;;;5.78;80.58
21879;BME280;27908;42.708;23.278;2023-02-15T10:50:49;63198.44;;;6.40;77.78
21879;BME280;27908;42.708;23.278;2023-02-15T10:53:43;63236.47;;;6.86;76.28
21879;BME280;27908;42.708;23.278;2023-02-15T10:56:19;63266.72;;;6.76;75.57
21879;BME280;27908;42.708;23.278;2023-02-15T11:01:53;63294.25;;;6.91;73.80
21879;BME280;27908;42.708;23.278;2023-02-15T11:04:40;63327.97;;;7.11;73.13
21879;BME280;27908;42.708;23.278;2023-02-15T11:09:48;63302.19;;;6.76;75.35
21879;BME280;27908;42.708;23.278;2023-02-15T11:12:18;63319.50;;;6.83;73.20
21879;BME280;27908;42.708;23.278;2023-02-15T11:17:21;63302.03;;;6.67;75.57
21879;BME280;27908;42.708;23.278;2023-02-15T11:20:24;63237.63;;;6.56;75.58
21879;BME280;27908;42.708;23.278;2023-02-15T11:22:49;63356.97;;;7.22;73.21
21879;BME280;27908;42.708;23.278;2023-02-15T11:25:40;63378.72;;;7.55;70.73
21879;BME280;27908;42.708;23.278;2023-02-15T11:28:12;63273.63;;;7.00;71.57
21879;BME280;27908;42.708;23.278;2023-02-15T11:30:48;63326.91;;;7.07;74.50
21879;BME280;27908;42.708;23.278;2023-02-15T11:33:25;63237.78;;;6.29;76.46
21879;BME280;27908;42.708;23.278;2023-02-15T11:38:44;63217.28;;;6.51;76.02
21879;BME280;27908;42.708;23.278;2023-02-15T11:41:20;63208.69;;;6.11;77.59
21879;BME280;27908;42.708;23.278;2023-02-15T11:43:59;63241.72;;;6.60;76.30
21879;BME280;27908;42.708;23.278;2023-02-15T11:46:30;63259.84;;;6.53;74.50
21879;BME280;27908;42.708;23.278;2023-02-15T11:51:49;63242.75;;;6.24;77.54
21879;BME280;27908;42.708;23.278;2023-02-15T11:54:18;63173.97;;;6.26;77.22
21879;BME280;27908;42.708;23.278;2023-02-15T11:56:45;63274.16;;;6.64;76.23
21879;BME280;27908;42.708;23.278;2023-02-15T11:59:15;63306.38;;;6.88;73.54
21879;BME280;27908;42.708;23.278;2023-02-15T12:01:45;63296.81;;;6.93;74.61
21879;BME280;27908;42.708;23.278;2023-02-15T12:04:22;63274.84;;;6.77;74.14
21879;BME280;27908;42.708;23.278;2023-02-15T12:06:54;63245.19;;;6.56;75.49
21879;BME280;27908;42.708;23.278;2023-02-15T12:12:35;63308.59;;;7.02;72.13
21879;BME280;27908;42.708;23.278;2023-02-15T12:15:04;63276.00;;;6.88;72.77
21879;BME280;27908;42.708;23.278;2023-02-15T12:17:38;63327.50;;;7.15;72.06
21879;BME280;27908;42.708;23.278;2023-02-15T12:20:20;63328.69;;;7.29;71.77
21879;BME280;27908;42.708;23.278;2023-02-15T12:22:52;63356.50;;;7.24;72.11
21879;BME280;27908;42.708;23.278;2023-02-15T12:25:24;63277.28;;;7.08;72.15
21879;BME280;27908;42.708;23.278;2023-02-15T12:27:51;63354.78;;;7.46;71.81
21879;BME280;27908;42.708;23.278;2023-02-15T12:30:21;63387.47;;;7.66;69.75
21879;BME280;27908;42.708;23.278;2023-02-15T12:32:59;63343.72;;;7.53;69.63
21879;BME280;27908;42.708;23.278;2023-02-15T12:35:32;63299.03;;;7.46;69.39
21879;BME280;27908;42.708;23.278;2023-02-15T12:38:09;63349.22;;;7.48;71.77
21879;BME280;27908;42.708;23.278;2023-02-15T12:40:57;63334.41;;;7.39;69.30
21879;BME280;27908;42.708;23.278;2023-02-15T12:43:41;63376.97;;;7.78;69.63
21879;BME280;27908;42.708;23.278;2023-02-15T12:46:26;63374.78;;;7.66;69.63
21879;BME280;27908;42.708;23.278;2023-02-15T12:49:10;63363.22;;;7.74;68.19
21879;BME280;27908;42.708;23.278;2023-02-15T12:51:54;63403.25;;;7.69;69.51
21879;BME280;27908;42.708;23.278;2023-02-15T12:54:37;63406.50;;;7.86;66.87
21879;BME280;27908;42.708;23.278;2023-02-15T12:57:31;63388.09;;;7.74;67.62
21879;BME280;27908;42.708;23.278;2023-02-15T13:00:04;63402.06;;;7.97;66.96
21879;BME280;27908;42.708;23.278;2023-02-15T13:02:40;63303.88;;;7.29;68.63
21879;BME280;27908;42.708;23.278;2023-02-15T13:07:54;63397.28;;;7.80;69.28
21879;BME280;27908;42.708;23.278;2023-02-15T13:10:37;63316.69;;;7.42;68.06
21879;BME280;27908;42.708;23.278;2023-02-15T13:13:29;63362.88;;;7.44;68.17
21879;BME280;27908;42.708;23.278;2023-02-15T13:16:04;63418.00;;;7.73;68.12
21879;BME280;27908;42.708;23.278;2023-02-15T13:18:35;63381.88;;;7.65;68.50
21879;BME280;27908;42.708;23.278;2023-02-15T13:21:21;63351.47;;;7.26;68.42
21879;BME280;27908;42.708;23.278;2023-02-15T13:23:59;63278.81;;;7.10;69.89
21879;BME280;27908;42.708;23.278;2023-02-15T13:26:29;63336.03;;;7.09;69.25
21879;BME280;27908;42.708;23.278;2023-02-15T13:28:59;63297.53;;;7.08;72.02
21879;BME280;27908;42.708;23.278;2023-02-15T13:31:28;63372.44;;;7.39;69.93
21879;BME280;27908;42.708;23.278;2023-02-15T13:34:25;63328.41;;;7.45;69.82
21879;BME280;27908;42.708;23.278;2023-02-15T13:42:13;63374.53;;;7.46;69.52
21879;BME280;27908;42.708;23.278;2023-02-15T13:52:26;63348.59;;;7.38;72.18
21879;BME280;27908;42.708;23.278;2023-02-15T13:55:23;63339.44;;;7.37;72.47
21879;BME280;27908;42.708;23.278;2023-02-15T14:00:55;63272.66;;;7.04;72.45
21879;BME280;27908;42.708;23.278;2023-02-15T14:14:24;63269.66;;;6.67;74.86
21879;BME280;27908;42.708;23.278;2023-02-15T14:19:57;63279.13;;;6.57;76.05
21879;BME280;27908;42.708;23.278;2023-02-15T14:22:46;63237.63;;;6.56;76.52
21879;BME280;27908;42.708;23.278;2023-02-15T14:28:16;63221.41;;;6.18;78.24
21879;BME280;27908;42.708;23.278;2023-02-15T14:30:49;63146.97;;;6.10;79.10
21879;BME280;27908;42.708;23.278;2023-02-15T14:36:19;63203.16;;;6.13;77.85
21879;BME280;27908;42.708;23.278;2023-02-15T14:42:21;63173.91;;;5.82;79.84
21879;BME280;27908;42.708;23.278;2023-02-15T14:44:59;63143.47;;;5.75;80.92
21879;BME280;27908;42.708;23.278;2023-02-15T14:49:55;63149.13;;;5.80;80.81
21879;BME280;27908;42.708;23.278;2023-02-15T14:52:21;63150.09;;;5.79;80.38
21879;BME280;27908;42.708;23.278;2023-02-15T14:59:58;63131.75;;;5.68;80.63
21879;BME280;27908;42.708;23.278;2023-02-15T15:02:49;63135.00;;;5.84;80.08
21879;BME280;27908;42.708;23.278;2023-02-15T15:05:19;63140.41;;;5.72;80.26
21879;BME280;27908;42.708;23.278;2023-02-15T15:07:49;63162.59;;;5.71;80.76
21879;BME280;27908;42.708;23.278;2023-02-15T15:15:13;63082.50;;;5.50;81.31
21879;BME280;27908;42.708;23.278;2023-02-15T15:22:39;63161.22;;;5.80;80.87
21879;BME280;27908;42.708;23.278;2023-02-15T15:25:10;63168.38;;;5.84;79.79
21879;BME280;27908;42.708;23.278;2023-02-15T15:27:47;63150.16;;;5.84;79.66
21879;BME280;27908;42.708;23.278;2023-02-15T15:49:12;63027.31;;;4.65;88.92
21879;BME280;27908;42.708;23.278;2023-02-15T15:51:42;63025.53;;;4.47;89.22
21879;BME280;27908;42.708;23.278;2023-02-15T15:54:19;62988.19;;;4.45;90.18
21879;BME280;27908;42.708;23.278;2023-02-15T15:56:53;63016.84;;;4.38;91.87
21879;BME280;27908;42.708;23.278;2023-02-15T15:59:23;63021.25;;;4.30;92.00
21879;BME280;27908;42.708;23.278;2023-02-15T16:01:50;62959.56;;;4.17;92.42